createdAt,value
2023-03-23T15:59:53.163Z,52.27
2023-03-23T16:02:23.391Z,52.43
2023-03-23T16:04:50.172Z,52.41
2023-03-23T16:07:18.954Z,52.65
2023-03-23T16:09:45.437Z,52.69
2023-03-23T16:12:12.258Z,52.68
2023-03-23T16:14:39.271Z,53.00
2023-03-23T16:17:05.646Z,53.02
2023-03-23T16:19:32.195Z,53.03
2023-03-23T16:21:58.602Z,52.92
2023-03-23T16:24:25.209Z,52.94
2023-03-23T16:26:51.817Z,53.19
2023-03-23T16:29:33.823Z,53.38
2023-03-23T16:32:04.679Z,53.42
2023-03-23T16:34:31.101Z,53.53
2023-03-23T16:36:57.549Z,53.45
2023-03-23T16:39:23.871Z,53.63
2023-03-23T16:41:50.265Z,53.47
2023-03-23T16:44:16.615Z,53.35
2023-03-23T16:46:42.961Z,53.38
2023-03-23T16:49:09.398Z,53.27
2023-03-23T16:51:35.941Z,53.40
2023-03-23T16:54:02.619Z,53.60
2023-03-23T16:56:29.233Z,53.54
2023-03-23T16:58:55.671Z,53.61
2023-03-23T17:01:22.088Z,53.63
2023-03-23T17:03:48.833Z,53.72
2023-03-23T17:06:15.591Z,53.77
2023-03-23T17:08:41.949Z,53.90
2023-03-23T17:11:09.827Z,54.03
2023-03-23T17:13:36.291Z,53.98
2023-03-23T17:16:02.642Z,54.02
2023-03-23T17:18:29.947Z,54.46
2023-03-23T17:20:56.341Z,54.64
2023-03-23T17:23:22.934Z,54.80
2023-03-23T17:25:50.178Z,54.87
2023-03-23T17:28:18.077Z,55.06
2023-03-23T17:30:46.831Z,55.05
2023-03-23T17:33:14.205Z,55.16
2023-03-23T17:35:41.181Z,55.49
2023-03-23T17:38:08.892Z,55.83
2023-03-23T17:40:35.996Z,55.96
2023-03-23T17:43:02.745Z,56.05
2023-03-23T17:45:29.178Z,56.15
2023-03-23T17:47:55.607Z,56.28
2023-03-23T17:50:23.684Z,56.39
2023-03-23T17:52:53.279Z,56.58
2023-03-23T17:55:20.483Z,56.63
2023-03-23T17:57:46.909Z,56.79
2023-03-23T18:00:13.992Z,56.92
2023-03-23T18:02:40.502Z,57.01
2023-03-23T18:05:07.319Z,57.26
2023-03-23T18:07:35.261Z,57.25
2023-03-23T18:10:01.672Z,57.09
2023-03-23T18:12:28.442Z,57.12
2023-03-23T18:14:56.834Z,57.11
2023-03-23T18:17:24.171Z,57.25
2023-03-23T18:19:50.665Z,57.34
2023-03-23T18:22:17.724Z,57.42
2023-03-23T18:24:44.969Z,57.62
2023-03-23T18:27:11.385Z,57.66
2023-03-23T18:29:38.811Z,57.91
2023-03-23T18:32:05.923Z,57.90
2023-03-23T18:34:33.084Z,58.02
2023-03-23T18:36:59.756Z,58.10
2023-03-23T18:39:26.035Z,58.11
2023-03-23T18:41:52.740Z,58.32
2023-03-23T18:44:19.767Z,58.54
2023-03-23T18:46:46.442Z,58.57
2023-03-23T18:49:12.793Z,58.89
2023-03-23T18:51:40.204Z,58.96
2023-03-23T18:54:06.586Z,59.01
2023-03-23T18:56:32.956Z,59.22
2023-03-23T18:58:59.979Z,59.42
2023-03-23T19:01:26.482Z,59.54
2023-03-23T19:03:53.218Z,59.70
2023-03-23T19:06:24.147Z,59.75
2023-03-23T19:08:51.186Z,59.99
2023-03-23T19:11:17.636Z,60.08
2023-03-23T19:13:57.966Z,60.22
2023-03-23T19:16:27.857Z,60.37
2023-03-23T19:18:54.904Z,60.42
2023-03-23T19:21:25.235Z,60.55
2023-03-23T19:23:55.708Z,60.52
2023-03-23T19:26:23.591Z,60.50
2023-03-23T19:31:19.143Z,60.44
2023-03-23T19:33:46.897Z,60.65
2023-03-23T19:36:14.037Z,60.82
2023-03-23T19:38:40.501Z,60.88
2023-03-23T19:41:08.190Z,60.81
2023-03-23T19:43:34.877Z,60.92
2023-03-23T19:46:01.562Z,61.00
2023-03-23T19:48:29.024Z,60.94
2023-03-23T19:50:55.396Z,61.15
2023-03-23T19:53:21.787Z,61.17
2023-03-23T19:55:49.052Z,61.17
2023-03-23T19:58:16.307Z,61.33
2023-03-23T20:00:44.229Z,61.43
2023-03-23T20:03:11.631Z,61.48
2023-03-23T20:05:38.166Z,61.88
2023-03-23T20:08:04.965Z,62.11
2023-03-23T20:10:31.414Z,62.34
2023-03-23T20:12:57.777Z,62.55
2023-03-23T20:15:24.197Z,62.97
2023-03-23T20:17:53.957Z,63.19
2023-03-23T20:20:20.469Z,63.34
2023-03-23T20:22:47.561Z,63.67
2023-03-23T20:25:15.990Z,63.91
2023-03-23T20:27:42.549Z,64.03
2023-03-23T20:30:09.246Z,64.34
2023-03-23T20:32:35.799Z,64.40
2023-03-23T20:35:06.671Z,64.52
2023-03-23T20:37:33.256Z,64.79
2023-03-23T20:40:00.607Z,65.07
2023-03-23T20:42:27.237Z,65.09
2023-03-23T20:44:53.600Z,64.94
2023-03-23T20:47:20.041Z,64.89
2023-03-23T20:49:52.948Z,65.10
2023-03-23T20:52:20.693Z,65.07
2023-03-23T20:54:47.227Z,65.22
2023-03-23T20:57:13.695Z,65.12
2023-03-23T20:59:40.104Z,65.32
2023-03-23T21:02:07.360Z,65.29
2023-03-23T21:04:33.724Z,65.24
2023-03-23T21:07:00.120Z,65.25
2023-03-23T21:09:26.628Z,65.20
2023-03-23T21:11:53.431Z,65.19
2023-03-23T21:14:19.867Z,65.07
2023-03-23T21:16:46.264Z,64.95
2023-03-23T21:19:12.931Z,64.83
2023-03-23T21:21:39.608Z,64.98
2023-03-23T21:24:22.963Z,65.00
2023-03-23T21:26:49.782Z,64.81
2023-03-23T21:29:16.144Z,64.68
2023-03-23T21:31:42.511Z,64.86
2023-03-23T21:34:08.968Z,64.85
2023-03-23T21:36:35.353Z,64.76
2023-03-23T21:39:01.652Z,64.98
2023-03-23T21:41:28.347Z,64.96
2023-03-23T21:43:55.260Z,64.93
2023-03-23T21:46:21.660Z,65.24
2023-03-23T21:48:48.874Z,65.34
2023-03-23T21:51:15.169Z,65.39
2023-03-23T21:53:41.787Z,65.41
2023-03-23T21:56:08.862Z,65.51
2023-03-23T21:58:35.716Z,65.69
2023-03-23T22:01:02.701Z,65.69
2023-03-23T22:03:29.576Z,65.86
2023-03-23T22:05:55.903Z,66.06
2023-03-23T22:08:23.411Z,66.00
2023-03-23T22:11:00.527Z,66.21
2023-03-23T22:13:29.554Z,66.14
2023-03-23T22:15:57.145Z,66.28
2023-03-23T22:18:23.514Z,66.29
2023-03-23T22:20:49.838Z,66.30
2023-03-23T22:23:16.212Z,66.30
2023-03-23T22:25:42.841Z,66.46
2023-03-23T22:28:09.307Z,66.46
2023-03-23T22:30:36.054Z,66.60
2023-03-23T22:33:02.490Z,66.63
2023-03-23T22:35:29.047Z,66.77
2023-03-23T22:37:55.463Z,66.66
2023-03-23T22:40:22.046Z,66.86
2023-03-23T22:42:49.220Z,66.87
2023-03-23T22:45:15.786Z,66.94
2023-03-23T22:47:42.129Z,67.04
2023-03-23T22:50:09.414Z,67.07
2023-03-23T22:52:36.229Z,67.06
2023-03-23T22:55:03.438Z,67.27
2023-03-23T22:57:29.896Z,67.40
2023-03-23T22:59:56.304Z,67.43
2023-03-23T23:02:23.182Z,67.47
2023-03-23T23:04:49.892Z,67.61
2023-03-23T23:07:16.719Z,67.67
2023-03-23T23:09:43.563Z,67.73
2023-03-23T23:12:10.845Z,67.81
2023-03-23T23:14:37.339Z,67.92
2023-03-23T23:17:04.237Z,67.99
2023-03-23T23:19:31.021Z,68.09
2023-03-23T23:22:06.449Z,68.20
2023-03-23T23:24:39.253Z,68.27
2023-03-23T23:27:05.667Z,68.27
2023-03-23T23:29:31.947Z,68.39
2023-03-23T23:31:58.358Z,68.60
2023-03-23T23:34:24.684Z,68.68
2023-03-23T23:36:51.049Z,68.85
2023-03-23T23:39:17.357Z,68.88
2023-03-23T23:41:43.664Z,69.02
2023-03-23T23:44:09.979Z,68.99
2023-03-23T23:46:36.416Z,69.19
2023-03-23T23:49:02.839Z,69.15
2023-03-23T23:51:30.866Z,69.25
2023-03-23T23:53:57.759Z,69.39
2023-03-23T23:56:24.535Z,69.50
2023-03-23T23:58:51.232Z,69.73
